createdAt,value
2018-02-07T00:00:39.492Z,41.50
2018-02-07T00:03:05.920Z,48.00
2018-02-07T00:05:32.582Z,42.65
2018-02-07T00:07:58.990Z,41.85
2018-02-07T00:10:25.565Z,42.13
2018-02-07T00:12:52.057Z,38.92
2018-02-07T00:15:18.528Z,52.58
2018-02-07T00:17:45.488Z,72.20
2018-02-07T00:20:11.978Z,64.12
2018-02-07T00:22:38.640Z,55.97
2018-02-07T00:25:05.048Z,58.30
2018-02-07T00:27:31.567Z,47.85
2018-02-07T00:29:58.024Z,44.40
2018-02-07T00:32:24.408Z,41.72
2018-02-07T00:34:50.876Z,37.47
2018-02-07T00:37:17.399Z,44.22
2018-02-07T00:39:44.006Z,42.55
2018-02-07T00:42:10.536Z,43.22
2018-02-07T00:44:37.322Z,38.88
2018-02-07T00:47:03.856Z,44.90
2018-02-07T00:49:30.231Z,42.80
2018-02-07T00:51:57.011Z,42.85
2018-02-07T00:54:23.443Z,44.55
2018-02-07T00:56:50.119Z,46.33
2018-02-07T00:59:16.547Z,43.03
2018-02-07T01:01:42.939Z,41.75
2018-02-07T01:04:09.920Z,46.88
2018-02-07T01:06:36.439Z,43.08
2018-02-07T01:09:03.502Z,42.60
2018-02-07T01:11:30.490Z,44.67
2018-02-07T01:13:57.027Z,44.13
2018-02-07T01:16:23.882Z,38.75
2018-02-07T01:18:50.344Z,41.55
2018-02-07T01:21:16.868Z,42.75
2018-02-07T01:23:43.487Z,41.58
2018-02-07T01:26:11.622Z,40.47
2018-02-07T01:28:38.079Z,44.15
2018-02-07T01:31:04.607Z,46.28
2018-02-07T01:33:31.112Z,43.92
2018-02-07T01:35:58.036Z,43.00
2018-02-07T01:38:24.532Z,39.58
2018-02-07T01:40:51.023Z,44.55
2018-02-07T01:43:18.375Z,44.83
2018-02-07T01:45:45.671Z,44.50
2018-02-07T01:48:12.263Z,49.67
2018-02-07T01:50:39.669Z,48.65
2018-02-07T01:53:06.203Z,38.20
2018-02-07T01:55:32.734Z,40.80
2018-02-07T01:57:59.301Z,41.25
2018-02-07T02:00:25.731Z,42.22
2018-02-07T02:02:52.275Z,37.83
2018-02-07T02:05:18.879Z,42.25
2018-02-07T02:07:45.268Z,37.53
2018-02-07T02:10:12.211Z,38.85
2018-02-07T02:12:38.722Z,37.55
2018-02-07T02:15:05.274Z,45.88
2018-02-07T02:17:32.167Z,41.37
2018-02-07T02:19:59.616Z,40.35
2018-02-07T02:22:26.163Z,37.35
2018-02-07T02:24:52.661Z,35.60
2018-02-07T02:27:19.059Z,39.95
2018-02-07T02:29:45.682Z,35.53
2018-02-07T02:32:12.284Z,40.38
2018-02-07T02:34:38.832Z,44.45
2018-02-07T02:37:05.300Z,34.58
2018-02-07T02:39:31.898Z,33.10
2018-02-07T02:41:58.383Z,37.25
2018-02-07T02:44:24.755Z,36.67
2018-02-07T02:46:51.991Z,38.92
2018-02-07T02:49:18.900Z,34.97
2018-02-07T02:51:45.509Z,34.10
2018-02-07T02:54:12.632Z,34.85
2018-02-07T02:56:39.131Z,37.17
2018-02-07T02:59:06.023Z,35.15
2018-02-07T03:01:32.499Z,32.65
2018-02-07T03:03:59.653Z,33.35
2018-02-07T03:06:26.251Z,31.55
2018-02-07T03:08:52.715Z,31.55
2018-02-07T03:11:19.367Z,32.55
2018-02-07T03:13:45.876Z,32.50
2018-02-07T03:16:12.384Z,34.72
2018-02-07T03:18:38.945Z,34.33
2018-02-07T03:21:05.409Z,34.17
2018-02-07T03:23:31.992Z,29.52
2018-02-07T03:25:58.459Z,35.63
2018-02-07T03:28:25.035Z,30.55
2018-02-07T03:30:51.569Z,33.58
2018-02-07T03:33:18.062Z,32.10
2018-02-07T03:35:44.599Z,39.00
2018-02-07T03:38:11.210Z,37.63
2018-02-07T03:40:37.691Z,32.10
2018-02-07T03:43:04.226Z,36.03
2018-02-07T03:45:30.823Z,37.42
2018-02-07T03:47:57.372Z,38.45
2018-02-07T03:50:23.871Z,34.88
2018-02-07T03:52:50.391Z,42.60
2018-02-07T03:55:17.280Z,35.50
2018-02-07T03:57:43.776Z,34.00
2018-02-07T04:00:10.327Z,31.45
2018-02-07T04:02:36.770Z,34.80
2018-02-07T04:05:04.325Z,30.02
2018-02-07T04:07:30.809Z,33.35
2018-02-07T04:09:57.456Z,32.65
2018-02-07T04:12:23.859Z,30.40
2018-02-07T04:14:50.771Z,34.10
2018-02-07T04:17:17.304Z,33.22
2018-02-07T04:19:44.055Z,33.72
2018-02-07T04:22:10.641Z,30.88
2018-02-07T04:24:37.167Z,33.83
2018-02-07T04:27:03.761Z,37.72
2018-02-07T04:29:30.239Z,35.85
2018-02-07T04:31:56.771Z,35.38
2018-02-07T04:34:23.361Z,36.63
2018-02-07T04:36:49.747Z,36.13
2018-02-07T04:39:16.376Z,38.60
2018-02-07T04:41:42.901Z,33.88
2018-02-07T04:44:09.578Z,37.63
2018-02-07T04:46:36.279Z,33.90
2018-02-07T04:49:02.814Z,35.80
2018-02-07T04:51:29.415Z,35.03
2018-02-07T04:53:55.968Z,36.92
2018-02-07T04:56:22.448Z,39.80
2018-02-07T04:58:48.951Z,36.97
2018-02-07T05:01:15.601Z,37.67
2018-02-07T05:03:42.057Z,38.95
2018-02-07T05:06:08.555Z,40.83
2018-02-07T05:08:35.111Z,39.20
2018-02-07T05:11:01.653Z,45.25
2018-02-07T05:13:28.235Z,38.22
2018-02-07T05:15:54.705Z,37.50
2018-02-07T05:18:21.319Z,39.05
2018-02-07T05:20:47.755Z,36.53
2018-02-07T05:23:14.308Z,32.20
2018-02-07T05:25:40.856Z,37.50
2018-02-07T05:28:07.438Z,38.38
2018-02-07T05:30:33.919Z,42.62
2018-02-07T05:33:00.460Z,36.25
2018-02-07T05:35:27.120Z,39.10
2018-02-07T05:37:53.498Z,35.42
2018-02-07T05:40:20.383Z,38.05
2018-02-07T05:42:46.976Z,38.35
2018-02-07T05:45:13.441Z,40.72
2018-02-07T05:47:40.288Z,36.35
2018-02-07T05:50:06.853Z,34.72
2018-02-07T05:52:33.393Z,38.65
2018-02-07T05:54:59.835Z,37.08
2018-02-07T05:57:26.482Z,43.90
2018-02-07T05:59:53.260Z,42.13
2018-02-07T06:02:20.595Z,42.75
2018-02-07T06:04:47.560Z,45.38
2018-02-07T06:07:14.130Z,43.87
2018-02-07T06:09:40.671Z,41.17
2018-02-07T06:12:07.532Z,37.30
2018-02-07T06:14:34.307Z,44.38
2018-02-07T06:17:00.879Z,42.03
2018-02-07T06:19:27.448Z,44.40
2018-02-07T06:21:53.930Z,40.08
2018-02-07T06:24:20.763Z,41.10
2018-02-07T06:26:47.348Z,41.60
2018-02-07T06:29:13.823Z,42.15
2018-02-07T06:31:40.416Z,42.78
2018-02-07T06:34:07.275Z,41.80
2018-02-07T06:36:36.281Z,39.30
2018-02-07T06:39:02.816Z,39.50
2018-02-07T06:41:29.264Z,42.10
2018-02-07T06:43:55.909Z,41.55
2018-02-07T06:46:22.394Z,42.03
2018-02-07T06:48:48.874Z,45.25
2018-02-07T06:51:15.728Z,38.10
2018-02-07T06:53:42.252Z,38.92
2018-02-07T06:56:08.864Z,42.72
2018-02-07T06:58:35.392Z,37.00
2018-02-07T07:01:01.968Z,39.72
2018-02-07T07:03:28.399Z,42.90
2018-02-07T07:05:55.604Z,36.50
2018-02-07T07:08:22.096Z,43.55
2018-02-07T07:10:48.616Z,38.58
2018-02-07T07:13:17.351Z,39.00
2018-02-07T07:15:43.738Z,39.83
2018-02-07T07:18:10.712Z,34.30
2018-02-07T07:20:37.171Z,35.67
2018-02-07T07:23:03.750Z,37.33
2018-02-07T07:25:30.664Z,37.15
2018-02-07T07:27:57.139Z,40.63
2018-02-07T07:30:23.665Z,37.58
2018-02-07T07:32:50.212Z,34.45
2018-02-07T07:35:17.164Z,39.92
2018-02-07T07:37:43.608Z,37.70
2018-02-07T07:40:10.160Z,41.83
2018-02-07T07:42:37.936Z,37.65
2018-02-07T07:45:04.420Z,38.00
2018-02-07T07:47:30.941Z,36.90
2018-02-07T07:49:57.374Z,41.65
2018-02-07T07:52:23.891Z,34.30
2018-02-07T07:54:50.568Z,29.55
2018-02-07T07:57:17.148Z,30.60
2018-02-07T07:59:43.618Z,31.85
2018-02-07T08:02:10.166Z,27.23
2018-02-07T08:04:36.691Z,34.17
2018-02-07T08:07:03.443Z,36.70
2018-02-07T08:09:30.125Z,36.83
2018-02-07T08:11:56.571Z,30.08
2018-02-07T08:14:23.443Z,29.08
2018-02-07T08:16:50.281Z,29.15
2018-02-07T08:19:16.816Z,28.08
2018-02-07T08:21:43.394Z,34.00
2018-02-07T08:24:09.879Z,32.33
2018-02-07T08:26:36.471Z,30.37
2018-02-07T08:29:03.025Z,30.52
2018-02-07T08:31:29.831Z,30.77
2018-02-07T08:33:56.380Z,35.88
2018-02-07T08:36:22.941Z,27.27
2018-02-07T08:38:49.422Z,34.92
2018-02-07T08:41:16.004Z,30.08
2018-02-07T08:43:42.544Z,35.10
2018-02-07T08:46:09.011Z,29.80
2018-02-07T08:48:35.604Z,32.20
2018-02-07T08:51:02.083Z,32.25
2018-02-07T08:53:30.236Z,30.88
2018-02-07T08:55:57.320Z,27.75
2018-02-07T08:58:23.863Z,28.75
2018-02-07T09:00:50.427Z,30.40
2018-02-07T09:03:17.023Z,29.95
2018-02-07T09:05:43.455Z,26.35
2018-02-07T09:08:09.871Z,24.15
2018-02-07T09:10:36.848Z,24.35
2018-02-07T09:13:04.430Z,28.08
2018-02-07T09:15:31.751Z,27.55
2018-02-07T09:17:58.252Z,27.02
2018-02-07T09:20:25.428Z,21.73
2018-02-07T09:22:51.963Z,26.73
2018-02-07T09:25:18.574Z,22.83
2018-02-07T09:27:45.035Z,24.73
2018-02-07T09:30:11.552Z,24.60
2018-02-07T09:32:38.115Z,28.25
2018-02-07T09:35:04.940Z,25.65
2018-02-07T09:37:31.635Z,21.23
2018-02-07T09:39:59.286Z,22.02
2018-02-07T09:42:25.857Z,19.73
2018-02-07T09:44:52.356Z,19.02
2018-02-07T09:47:19.155Z,21.98
2018-02-07T09:49:45.702Z,19.87
2018-02-07T09:52:12.288Z,19.12
2018-02-07T09:54:53.976Z,21.60
2018-02-07T09:57:20.749Z,24.45
2018-02-07T09:59:47.284Z,21.12
2018-02-07T10:02:14.342Z,19.58
2018-02-07T10:04:40.927Z,17.85
2018-02-07T10:07:07.532Z,21.40
2018-02-07T10:09:34.027Z,18.98
2018-02-07T10:12:00.469Z,19.27
2018-02-07T10:14:27.023Z,19.35
2018-02-07T10:16:53.912Z,21.95
2018-02-07T10:19:20.443Z,20.05
2018-02-07T10:21:47.237Z,21.12
2018-02-07T10:24:13.819Z,19.62
2018-02-07T10:26:40.303Z,19.75
2018-02-07T10:29:06.864Z,22.15
2018-02-07T10:31:33.685Z,21.20
2018-02-07T10:34:00.223Z,24.85
2018-02-07T10:36:26.755Z,29.15
2018-02-07T10:38:53.651Z,96.22
2018-02-07T10:41:20.134Z,32.22
2018-02-07T10:43:46.799Z,21.50
2018-02-07T10:46:13.219Z,21.77
2018-02-07T10:48:39.742Z,27.25
2018-02-07T10:51:06.275Z,26.73
2018-02-07T10:53:33.438Z,21.27
2018-02-07T10:56:00.021Z,20.90
2018-02-07T10:58:26.598Z,27.37
2018-02-07T11:00:53.724Z,23.40
2018-02-07T11:03:20.264Z,24.87
2018-02-07T11:05:47.342Z,19.20
2018-02-07T11:08:13.956Z,25.27
2018-02-07T11:10:40.468Z,23.60
2018-02-07T11:13:09.071Z,23.62
2018-02-07T11:15:35.650Z,23.77
2018-02-07T11:18:03.411Z,32.28
2018-02-07T11:20:30.856Z,26.90
2018-02-07T11:22:57.368Z,22.10
2018-02-07T11:25:23.976Z,21.95
2018-02-07T11:27:50.497Z,23.12
2018-02-07T11:30:16.973Z,20.40
2018-02-07T11:32:43.515Z,23.87
2018-02-07T11:35:10.065Z,21.90
2018-02-07T11:37:36.573Z,23.17
2018-02-07T11:40:03.139Z,23.00
2018-02-07T11:42:29.732Z,23.90
2018-02-07T11:44:57.851Z,21.67
2018-02-07T11:47:24.330Z,19.80
2018-02-07T11:49:50.855Z,22.75
2018-02-07T11:52:17.255Z,19.70
2018-02-07T11:54:43.869Z,17.83
2018-02-07T11:57:10.464Z,22.13
2018-02-07T11:59:36.960Z,21.15
2018-02-07T12:02:03.495Z,20.83
2018-02-07T12:04:30.010Z,21.50
2018-02-07T12:06:56.570Z,19.70
2018-02-07T12:09:23.327Z,21.42
2018-02-07T12:11:50.038Z,20.02
2018-02-07T12:14:16.467Z,20.10
2018-02-07T12:16:43.414Z,21.73
2018-02-07T12:19:09.900Z,22.62
2018-02-07T12:21:36.415Z,20.67
2018-02-07T12:24:03.212Z,22.33
2018-02-07T12:26:29.600Z,19.62
2018-02-07T12:28:58.457Z,22.08
2018-02-07T12:31:25.279Z,21.02
2018-02-07T12:33:51.868Z,23.05
2018-02-07T12:36:18.657Z,25.62
2018-02-07T12:38:45.204Z,24.75
2018-02-07T12:41:11.750Z,22.10
2018-02-07T12:43:38.264Z,23.52
2018-02-07T12:46:04.772Z,21.02
2018-02-07T12:48:32.000Z,24.40
2018-02-07T12:50:58.529Z,25.70
2018-02-07T12:53:26.004Z,20.08
2018-02-07T12:55:52.835Z,21.17
2018-02-07T12:58:19.316Z,22.00
2018-02-07T13:00:45.859Z,21.52
2018-02-07T13:03:13.312Z,23.23
2018-02-07T13:05:39.839Z,19.10
2018-02-07T13:08:06.750Z,18.83
2018-02-07T13:10:33.899Z,22.00
2018-02-07T13:13:01.135Z,25.67
2018-02-07T13:15:29.078Z,21.10
2018-02-07T13:17:55.591Z,23.33
2018-02-07T13:20:22.511Z,21.05
2018-02-07T13:22:49.571Z,21.60
2018-02-07T13:25:16.194Z,20.80
2018-02-07T13:27:42.644Z,20.33
2018-02-07T13:30:09.880Z,34.25
2018-02-07T13:32:36.354Z,45.92
2018-02-07T13:35:02.887Z,35.72
2018-02-07T13:37:29.428Z,25.92
2018-02-07T13:39:55.815Z,24.67
2018-02-07T13:42:22.912Z,17.90
2018-02-07T13:44:49.371Z,26.90
2018-02-07T13:47:16.221Z,23.73
2018-02-07T13:49:43.025Z,30.80
2018-02-07T13:52:09.836Z,21.42
2018-02-07T13:54:36.387Z,21.58
2018-02-07T13:57:02.965Z,25.12
2018-02-07T13:59:29.545Z,28.85
2018-02-07T14:01:56.629Z,25.42
2018-02-07T14:04:23.139Z,20.17
2018-02-07T14:06:49.993Z,25.42
2018-02-07T14:09:16.509Z,22.55
2018-02-07T14:11:43.121Z,23.55
2018-02-07T14:14:09.886Z,21.85
2018-02-07T14:16:36.487Z,20.10
2018-02-07T14:19:02.992Z,25.62
2018-02-07T14:21:30.415Z,26.67
2018-02-07T14:23:56.960Z,25.92
2018-02-07T14:26:23.480Z,27.45
2018-02-07T14:28:50.130Z,21.45
2018-02-07T14:31:16.571Z,26.95
2018-02-07T14:33:43.473Z,25.25
2018-02-07T14:36:11.520Z,24.37
2018-02-07T14:38:38.085Z,25.67
2018-02-07T14:41:04.545Z,21.20
2018-02-07T14:43:31.068Z,23.42
2018-02-07T14:45:57.611Z,22.05
2018-02-07T14:48:24.463Z,26.80
2018-02-07T14:50:51.056Z,21.23
2018-02-07T14:53:17.820Z,18.23
2018-02-07T14:55:44.364Z,21.05
2018-02-07T14:58:10.767Z,18.90
2018-02-07T15:00:37.434Z,28.70
2018-02-07T15:03:03.991Z,32.65
2018-02-07T15:05:30.820Z,45.47
2018-02-07T15:07:57.497Z,28.42
2018-02-07T15:10:24.191Z,32.03
2018-02-07T15:12:50.996Z,23.98
2018-02-07T15:15:17.582Z,23.73
2018-02-07T15:17:45.048Z,23.23
2018-02-07T15:20:11.585Z,21.75
2018-02-07T15:22:38.427Z,17.87
2018-02-07T15:25:04.932Z,23.02
2018-02-07T15:27:31.516Z,20.50
2018-02-07T15:29:58.027Z,21.35
2018-02-07T15:32:24.924Z,20.10
2018-02-07T15:34:51.380Z,28.65
2018-02-07T15:37:17.921Z,24.80
2018-02-07T15:39:44.455Z,19.73
2018-02-07T15:42:11.709Z,22.55
2018-02-07T15:44:38.755Z,26.48
2018-02-07T15:47:05.297Z,26.37
2018-02-07T15:49:31.888Z,26.70
2018-02-07T15:51:58.360Z,28.48
2018-02-07T15:54:25.227Z,26.48
2018-02-07T15:56:52.757Z,27.48
2018-02-07T15:59:19.271Z,20.70
2018-02-07T16:01:45.806Z,25.40
2018-02-07T16:04:12.263Z,25.67
2018-02-07T16:06:38.822Z,26.17
2018-02-07T16:09:05.226Z,23.00
2018-02-07T16:11:32.243Z,24.87
2018-02-07T16:14:13.615Z,24.15
2018-02-07T16:16:41.880Z,23.45
2018-02-07T16:19:08.370Z,28.87
2018-02-07T16:21:34.959Z,25.42
2018-02-07T16:24:01.494Z,23.00
2018-02-07T16:26:28.277Z,30.08
2018-02-07T16:28:54.888Z,30.02
2018-02-07T16:31:21.359Z,28.95
2018-02-07T16:33:47.944Z,31.05
2018-02-07T16:36:14.423Z,29.48
2018-02-07T16:38:40.972Z,31.35
2018-02-07T16:41:07.818Z,35.65
2018-02-07T16:43:35.264Z,34.83
2018-02-07T16:46:01.835Z,38.55
2018-02-07T16:48:28.227Z,33.45
2018-02-07T16:50:54.928Z,35.35
2018-02-07T16:53:21.408Z,34.22
2018-02-07T16:55:48.012Z,32.22
2018-02-07T16:58:14.479Z,35.90
2018-02-07T17:00:41.086Z,33.90
2018-02-07T17:03:09.736Z,30.70
2018-02-07T17:05:36.316Z,33.72
2018-02-07T17:08:03.462Z,27.98
2018-02-07T17:10:29.912Z,30.37
2018-02-07T17:12:58.609Z,29.02
2018-02-07T17:15:25.450Z,29.87
2018-02-07T17:17:52.001Z,31.60
2018-02-07T17:20:20.120Z,33.30
2018-02-07T17:22:46.580Z,29.52
2018-02-07T17:25:13.405Z,36.78
2018-02-07T17:27:40.345Z,34.33
2018-02-07T17:30:06.836Z,31.40
2018-02-07T17:32:33.446Z,31.98
2018-02-07T17:35:00.487Z,37.40
2018-02-07T17:37:27.022Z,43.65
2018-02-07T17:39:53.553Z,35.40
2018-02-07T17:42:20.127Z,32.20
2018-02-07T17:44:46.640Z,28.42
2018-02-07T17:47:13.160Z,26.40
2018-02-07T17:49:39.752Z,30.58
2018-02-07T17:52:06.338Z,27.25
2018-02-07T17:54:32.823Z,29.90
2018-02-07T17:56:59.356Z,32.08
2018-02-07T17:59:25.895Z,30.08
2018-02-07T18:01:52.699Z,27.15
2018-02-07T18:04:19.400Z,29.60
2018-02-07T18:06:46.064Z,27.83
2018-02-07T18:09:12.451Z,26.00
2018-02-07T18:11:39.513Z,26.95
2018-02-07T18:14:06.023Z,33.20
2018-02-07T18:16:32.569Z,32.45
2018-02-07T18:18:59.012Z,31.62
2018-02-07T18:21:25.948Z,30.92
2018-02-07T18:23:52.358Z,34.47
2018-02-07T18:26:19.196Z,31.62
2018-02-07T18:28:46.141Z,32.63
2018-02-07T18:31:12.684Z,30.90
2018-02-07T18:33:39.200Z,29.77
2018-02-07T18:36:05.705Z,29.35
2018-02-07T18:38:32.228Z,32.55
2018-02-07T18:40:58.837Z,32.03
2018-02-07T18:43:26.082Z,32.60
2018-02-07T18:45:53.416Z,27.98
2018-02-07T18:48:19.904Z,28.92
2018-02-07T18:50:46.557Z,70.97
2018-02-07T18:53:12.939Z,50.72
2018-02-07T18:55:39.330Z,44.28
2018-02-07T18:58:05.819Z,40.45
2018-02-07T19:00:32.305Z,41.42
2018-02-07T19:02:59.140Z,45.20
2018-02-07T19:05:26.591Z,26.33
2018-02-07T19:07:53.195Z,36.58
2018-02-07T19:10:20.298Z,37.88
2018-02-07T19:12:46.816Z,33.72
2018-02-07T19:15:13.350Z,29.23
2018-02-07T19:17:39.929Z,30.20
2018-02-07T19:20:06.552Z,29.08
2018-02-07T19:22:33.316Z,27.67
2018-02-07T19:25:00.177Z,26.98
2018-02-07T19:27:26.638Z,28.85
2018-02-07T19:29:53.159Z,28.90
2018-02-07T19:32:19.768Z,32.33
2018-02-07T19:34:46.545Z,31.80
2018-02-07T19:37:12.957Z,27.50
2018-02-07T19:39:39.612Z,28.23
2018-02-07T19:42:06.248Z,29.90
2018-02-07T19:44:32.692Z,23.02
2018-02-07T19:46:59.297Z,29.52
2018-02-07T19:49:25.771Z,28.67
2018-02-07T19:51:52.353Z,28.42
2018-02-07T19:54:18.817Z,29.75
2018-02-07T19:56:45.672Z,25.90
2018-02-07T19:59:12.266Z,26.37
2018-02-07T20:01:38.736Z,29.63
2018-02-07T20:04:05.347Z,28.27
2018-02-07T20:06:31.804Z,27.90
2018-02-07T20:08:58.357Z,27.23
2018-02-07T20:11:25.243Z,28.55
2018-02-07T20:13:51.794Z,33.55
2018-02-07T20:16:18.312Z,28.92
2018-02-07T20:18:46.329Z,30.10
2018-02-07T20:21:12.864Z,32.03
2018-02-07T20:23:39.284Z,28.70
2018-02-07T20:26:05.972Z,36.33
2018-02-07T20:28:32.486Z,39.67
2018-02-07T20:30:59.012Z,35.80
2018-02-07T20:33:25.653Z,33.78
2018-02-07T20:35:52.084Z,30.80
2018-02-07T20:38:18.603Z,32.05
2018-02-07T20:40:45.468Z,45.30
2018-02-07T20:43:12.046Z,36.40
2018-02-07T20:45:38.527Z,34.35
2018-02-07T20:48:05.432Z,30.12
2018-02-07T20:50:32.360Z,30.67
2018-02-07T20:52:59.361Z,32.20
2018-02-07T20:55:26.125Z,34.72
2018-02-07T20:57:52.773Z,31.85
2018-02-07T21:00:20.986Z,27.40
2018-02-07T21:02:47.659Z,30.98
2018-02-07T21:05:14.420Z,31.85
2018-02-07T21:07:41.799Z,34.10
2018-02-07T21:10:09.106Z,27.70
2018-02-07T21:12:36.579Z,30.50
2018-02-07T21:15:03.135Z,29.37
2018-02-07T21:17:30.930Z,29.20
2018-02-07T21:19:58.637Z,37.25
2018-02-07T21:22:27.307Z,31.33
2018-02-07T21:24:53.880Z,33.00
2018-02-07T21:27:20.722Z,34.20
2018-02-07T21:29:47.260Z,37.38
2018-02-07T21:32:14.109Z,32.85
2018-02-07T21:34:41.579Z,32.83
2018-02-07T21:37:08.107Z,34.88
2018-02-07T21:39:34.644Z,33.03
2018-02-07T21:42:01.153Z,34.65
2018-02-07T21:44:28.030Z,36.03
2018-02-07T21:46:54.496Z,33.58
2018-02-07T21:49:21.058Z,31.58
2018-02-07T21:51:47.559Z,35.08
2018-02-07T21:54:14.189Z,34.10
2018-02-07T21:56:40.626Z,38.13
2018-02-07T21:59:07.488Z,36.22
2018-02-07T22:01:34.007Z,36.20
2018-02-07T22:04:00.557Z,30.90
2018-02-07T22:06:27.150Z,30.80
2018-02-07T22:08:53.635Z,31.75
2018-02-07T22:11:20.214Z,33.20
2018-02-07T22:13:46.691Z,30.52
2018-02-07T22:16:13.199Z,32.10
2018-02-07T22:18:39.812Z,36.78
2018-02-07T22:21:06.288Z,34.35
2018-02-07T22:23:33.196Z,30.10
2018-02-07T22:25:59.728Z,35.72
2018-02-07T22:28:26.529Z,29.70
2018-02-07T22:30:53.352Z,29.05
2018-02-07T22:33:19.946Z,30.67
2018-02-07T22:35:46.421Z,28.80
2018-02-07T22:38:12.963Z,33.05
2018-02-07T22:40:39.506Z,29.67
2018-02-07T22:43:05.938Z,28.90
2018-02-07T22:45:32.596Z,34.50
2018-02-07T22:47:59.086Z,32.75
2018-02-07T22:50:25.688Z,31.20
2018-02-07T22:52:52.524Z,32.65
2018-02-07T22:55:19.014Z,34.22
2018-02-07T22:57:45.563Z,51.58
2018-02-07T23:00:11.964Z,56.47
2018-02-07T23:02:39.622Z,50.92
2018-02-07T23:05:06.147Z,52.35
2018-02-07T23:07:32.651Z,48.80
2018-02-07T23:09:59.148Z,48.03
2018-02-07T23:12:26.047Z,40.78
2018-02-07T23:14:53.441Z,35.30
2018-02-07T23:17:20.284Z,32.72
2018-02-07T23:19:47.510Z,39.53
2018-02-07T23:22:14.263Z,31.45
2018-02-07T23:24:41.928Z,36.35
2018-02-07T23:27:08.872Z,35.65
2018-02-07T23:29:36.499Z,37.83
2018-02-07T23:32:03.181Z,39.85
2018-02-07T23:34:30.387Z,42.08
2018-02-07T23:36:57.200Z,33.10
2018-02-07T23:39:23.780Z,34.28
2018-02-07T23:41:50.613Z,37.10
2018-02-07T23:44:17.099Z,37.30
2018-02-07T23:46:43.620Z,37.28
2018-02-07T23:49:12.371Z,36.60
2018-02-07T23:51:42.523Z,33.78
2018-02-07T23:54:10.135Z,36.85
2018-02-07T23:56:36.519Z,37.40
2018-02-07T23:59:03.099Z,47.67
